sensor_id;sensor_type;location;lat;lon;timestamp;pressure;altitude;pressure_sealevel;temperature;humidity
57606;BME280;43430;48.204;11.556;2023-04-22T00:00:02;95480.66;;;8.38;100.00
57606;BME280;43430;48.204;11.556;2023-04-22T00:02:28;95484.72;;;8.34;100.00
57606;BME280;43430;48.204;11.556;2023-04-22T00:04:53;95482.91;;;8.35;100.00
57606;BME280;43430;48.204;11.556;2023-04-22T00:07:19;95487.50;;;8.39;100.00
57606;BME280;43430;48.204;11.556;2023-04-22T00:09:44;95484.94;;;8.32;100.00
57606;BME280;43430;48.204;11.556;2023-04-22T00:12:11;95486.03;;;8.25;100.00
57606;BME280;43430;48.204;11.556;2023-04-22T00:14:36;95486.31;;;8.17;100.00
57606;BME280;43430;48.204;11.556;2023-04-22T00:17:02;95483.63;;;8.23;100.00
57606;BME280;43430;48.204;11.556;2023-04-22T00:19:28;95485.59;;;8.28;100.00
57606;BME280;43430;48.204;11.556;2023-04-22T00:21:53;95485.59;;;8.28;100.00
57606;BME280;43430;48.204;11.556;2023-04-22T00:24:18;95485.16;;;8.31;100.00
57606;BME280;43430;48.204;11.556;2023-04-22T00:26:44;95482.09;;;8.34;100.00
57606;BME280;43430;48.204;11.556;2023-04-22T00:29:09;95482.66;;;8.36;100.00
57606;BME280;43430;48.204;11.556;2023-04-22T00:31:34;95483.19;;;8.26;100.00
57606;BME280;43430;48.204;11.556;2023-04-22T00:34:00;95487.25;;;8.22;100.00
57606;BME280;43430;48.204;11.556;2023-04-22T00:36:25;95482.84;;;8.23;100.00
57606;BME280;43430;48.204;11.556;2023-04-22T00:38:52;95486.81;;;8.25;100.00
57606;BME280;43430;48.204;11.556;2023-04-22T00:41:17;95492.91;;;8.26;100.00
57606;BME280;43430;48.204;11.556;2023-04-22T00:43:43;95490.56;;;8.18;100.00
57606;BME280;43430;48.204;11.556;2023-04-22T00:46:09;95493.41;;;8.16;100.00
57606;BME280;43430;48.204;11.556;2023-04-22T00:48:37;95482.09;;;8.16;100.00
57606;BME280;43430;48.204;11.556;2023-04-22T00:51:04;95482.53;;;8.13;100.00
57606;BME280;43430;48.204;11.556;2023-04-22T00:53:29;95483.34;;;8.13;100.00
57606;BME280;43430;48.204;11.556;2023-04-22T00:55:55;95485.00;;;8.07;100.00
57606;BME280;43430;48.204;11.556;2023-04-22T00:58:21;95486.59;;;8.08;100.00
57606;BME280;43430;48.204;11.556;2023-04-22T01:00:50;95483.78;;;8.10;100.00
57606;BME280;43430;48.204;11.556;2023-04-22T01:03:15;95484.81;;;8.09;100.00
57606;BME280;43430;48.204;11.556;2023-04-22T01:05:41;95481.56;;;8.07;100.00
57606;BME280;43430;48.204;11.556;2023-04-22T01:08:06;95478.59;;;8.03;100.00
57606;BME280;43430;48.204;11.556;2023-04-22T01:10:31;95478.66;;;7.97;100.00
57606;BME280;43430;48.204;11.556;2023-04-22T01:12:57;95480.69;;;7.95;100.00
57606;BME280;43430;48.204;11.556;2023-04-22T01:15:22;95486.59;;;7.90;100.00
57606;BME280;43430;48.204;11.556;2023-04-22T01:17:48;95479.94;;;7.88;100.00
57606;BME280;43430;48.204;11.556;2023-04-22T01:20:13;95490.66;;;7.86;100.00
57606;BME280;43430;48.204;11.556;2023-04-22T01:22:41;95487.44;;;7.84;100.00
57606;BME280;43430;48.204;11.556;2023-04-22T01:25:08;95491.53;;;7.80;100.00
57606;BME280;43430;48.204;11.556;2023-04-22T01:27:34;95499.41;;;7.80;100.00
57606;BME280;43430;48.204;11.556;2023-04-22T01:29:59;95493.34;;;7.79;100.00
57606;BME280;43430;48.204;11.556;2023-04-22T01:32:24;95491.94;;;7.77;100.00
57606;BME280;43430;48.204;11.556;2023-04-22T01:34:50;95487.34;;;7.72;100.00
57606;BME280;43430;48.204;11.556;2023-04-22T01:37:17;95489.38;;;7.70;100.00
57606;BME280;43430;48.204;11.556;2023-04-22T01:39:42;95491.88;;;7.65;100.00
57606;BME280;43430;48.204;11.556;2023-04-22T01:42:08;95500.06;;;7.50;100.00
57606;BME280;43430;48.204;11.556;2023-04-22T01:44:35;95504.34;;;7.45;100.00
57606;BME280;43430;48.204;11.556;2023-04-22T01:47:00;95502.56;;;7.38;100.00
57606;BME280;43430;48.204;11.556;2023-04-22T01:49:25;95510.22;;;7.40;100.00
57606;BME280;43430;48.204;11.556;2023-04-22T01:51:51;95507.00;;;7.38;100.00
57606;BME280;43430;48.204;11.556;2023-04-22T01:54:16;95504.75;;;7.42;100.00
57606;BME280;43430;48.204;11.556;2023-04-22T01:56:49;95499.75;;;7.40;100.00
57606;BME280;43430;48.204;11.556;2023-04-22T01:59:14;95511.75;;;7.23;100.00
57606;BME280;43430;48.204;11.556;2023-04-22T02:01:39;95498.16;;;7.32;100.00
57606;BME280;43430;48.204;11.556;2023-04-22T02:04:05;95504.38;;;7.38;100.00
57606;BME280;43430;48.204;11.556;2023-04-22T02:06:30;95504.22;;;7.33;100.00
57606;BME280;43430;48.204;11.556;2023-04-22T02:08:56;95509.47;;;7.33;100.00
57606;BME280;43430;48.204;11.556;2023-04-22T02:11:21;95500.59;;;7.34;100.00
57606;BME280;43430;48.204;11.556;2023-04-22T02:13:47;95512.25;;;7.38;100.00
57606;BME280;43430;48.204;11.556;2023-04-22T02:16:12;95505.41;;;7.37;100.00
57606;BME280;43430;48.204;11.556;2023-04-22T02:18:37;95499.00;;;7.33;100.00
57606;BME280;43430;48.204;11.556;2023-04-22T02:21:03;95505.44;;;7.30;100.00
57606;BME280;43430;48.204;11.556;2023-04-22T02:23:28;95513.09;;;7.32;100.00
57606;BME280;43430;48.204;11.556;2023-04-22T02:25:54;95518.34;;;7.32;100.00
57606;BME280;43430;48.204;11.556;2023-04-22T02:28:20;95514.06;;;7.37;100.00
57606;BME280;43430;48.204;11.556;2023-04-22T02:30:45;95505.50;;;7.49;100.00
57606;BME280;43430;48.204;11.556;2023-04-22T02:33:11;95500.06;;;7.50;100.00
57606;BME280;43430;48.204;11.556;2023-04-22T02:35:36;95504.53;;;7.43;100.00
57606;BME280;43430;48.204;11.556;2023-04-22T02:38:02;95504.97;;;7.40;100.00
57606;BME280;43430;48.204;11.556;2023-04-22T02:40:27;95507.66;;;7.33;100.00
57606;BME280;43430;48.204;11.556;2023-04-22T02:42:52;95509.97;;;7.17;100.00
57606;BME280;43430;48.204;11.556;2023-04-22T02:45:18;95516.47;;;7.07;100.00
57606;BME280;43430;48.204;11.556;2023-04-22T02:47:43;95519.91;;;7.08;100.00
57606;BME280;43430;48.204;11.556;2023-04-22T02:50:09;95516.47;;;7.07;100.00
57606;BME280;43430;48.204;11.556;2023-04-22T02:52:34;95512.69;;;7.03;100.00
57606;BME280;43430;48.204;11.556;2023-04-22T02:55:00;95519.03;;;6.82;100.00
57606;BME280;43430;48.204;11.556;2023-04-22T02:57:25;95524.31;;;6.76;100.00
57606;BME280;43430;48.204;11.556;2023-04-22T02:59:51;95513.81;;;6.82;100.00
57606;BME280;43430;48.204;11.556;2023-04-22T03:02:16;95512.63;;;6.78;100.00
57606;BME280;43430;48.204;11.556;2023-04-22T03:04:41;95511.19;;;6.82;100.00
57606;BME280;43430;48.204;11.556;2023-04-22T03:07:07;95513.81;;;6.82;100.00
57606;BME280;43430;48.204;11.556;2023-04-22T03:09:32;95510.00;;;6.78;100.00
57606;BME280;43430;48.204;11.556;2023-04-22T03:11:57;95515.44;;;6.77;100.00
57606;BME280;43430;48.204;11.556;2023-04-22T03:14:23;95506.38;;;6.73;100.00
57606;BME280;43430;48.204;11.556;2023-04-22T03:16:48;95515.06;;;6.66;100.00
57606;BME280;43430;48.204;11.556;2023-04-22T03:19:13;95503.59;;;6.68;100.00
57606;BME280;43430;48.204;11.556;2023-04-22T03:21:40;95499.56;;;6.65;100.00
57606;BME280;43430;48.204;11.556;2023-04-22T03:24:06;95506.81;;;6.63;100.00
57606;BME280;43430;48.204;11.556;2023-04-22T03:26:31;95503.81;;;6.59;100.00
57606;BME280;43430;48.204;11.556;2023-04-22T03:28:57;95499.78;;;6.57;100.00
57606;BME280;43430;48.204;11.556;2023-04-22T03:31:22;95500.44;;;6.52;100.00
57606;BME280;43430;48.204;11.556;2023-04-22T03:33:47;95510.72;;;6.47;100.00
57606;BME280;43430;48.204;11.556;2023-04-22T03:36:13;95511.34;;;6.36;100.00
57606;BME280;43430;48.204;11.556;2023-04-22T03:38:38;95510.81;;;6.21;100.00
57606;BME280;43430;48.204;11.556;2023-04-22T03:41:03;95519.63;;;6.26;100.00
57606;BME280;43430;48.204;11.556;2023-04-22T03:43:29;95518.84;;;6.19;100.00
57606;BME280;43430;48.204;11.556;2023-04-22T03:45:54;95527.53;;;6.20;100.00
57606;BME280;43430;48.204;11.556;2023-04-22T03:48:19;95527.72;;;6.18;100.00
57606;BME280;43430;48.204;11.556;2023-04-22T03:50:45;95528.53;;;6.18;100.00
57606;BME280;43430;48.204;11.556;2023-04-22T03:53:11;95528.13;;;6.08;100.00
57606;BME280;43430;48.204;11.556;2023-04-22T03:55:36;95532.00;;;6.06;100.00
57606;BME280;43430;48.204;11.556;2023-04-22T03:58:02;95535.59;;;6.11;100.00
57606;BME280;43430;48.204;11.556;2023-04-22T04:00:27;95535.00;;;6.09;100.00
57606;BME280;43430;48.204;11.556;2023-04-22T04:02:53;95541.06;;;5.97;100.00
57606;BME280;43430;48.204;11.556;2023-04-22T04:05:18;95537.81;;;6.01;100.00
57606;BME280;43430;48.204;11.556;2023-04-22T04:07:43;95535.59;;;6.05;100.00
57606;BME280;43430;48.204;11.556;2023-04-22T04:10:09;95534.16;;;6.09;100.00
57606;BME280;43430;48.204;11.556;2023-04-22T04:12:35;95530.97;;;6.13;100.00
57606;BME280;43430;48.204;11.556;2023-04-22T04:15:00;95535.00;;;6.09;100.00
57606;BME280;43430;48.204;11.556;2023-04-22T04:17:25;95533.38;;;5.95;100.00
57606;BME280;43430;48.204;11.556;2023-04-22T04:19:53;95533.59;;;5.93;100.00
57606;BME280;43430;48.204;11.556;2023-04-22T04:22:18;95537.81;;;5.94;100.00
57606;BME280;43430;48.204;11.556;2023-04-22T04:24:44;95537.81;;;6.01;100.00
57606;BME280;43430;48.204;11.556;2023-04-22T04:27:10;95535.00;;;6.03;100.00
57606;BME280;43430;48.204;11.556;2023-04-22T04:29:36;95532.78;;;6.06;100.00
57606;BME280;43430;48.204;11.556;2023-04-22T04:32:01;95521.72;;;6.04;100.00
57606;BME280;43430;48.204;11.556;2023-04-22T04:34:27;95533.97;;;6.10;100.00
57606;BME280;43430;48.204;11.556;2023-04-22T04:36:52;95521.47;;;6.19;100.00
57606;BME280;43430;48.204;11.556;2023-04-22T04:39:19;95525.72;;;6.20;100.00
57606;BME280;43430;48.204;11.556;2023-04-22T04:41:44;95524.09;;;6.19;100.00
57606;BME280;43430;48.204;11.556;2023-04-22T04:44:10;95525.69;;;6.27;100.00
57606;BME280;43430;48.204;11.556;2023-04-22T04:46:35;95520.25;;;6.28;100.00
57606;BME280;43430;48.204;11.556;2023-04-22T04:49:02;95527.06;;;6.36;100.00
57606;BME280;43430;48.204;11.556;2023-04-22T04:51:29;95532.13;;;6.31;100.00
57606;BME280;43430;48.204;11.556;2023-04-22T04:53:56;95530.91;;;6.33;100.00
57606;BME280;43430;48.204;11.556;2023-04-22T04:56:22;95534.50;;;6.39;100.00
57606;BME280;43430;48.204;11.556;2023-04-22T04:58:48;95537.34;;;6.37;100.00
57606;BME280;43430;48.204;11.556;2023-04-22T05:01:13;95533.44;;;6.53;100.00
57606;BME280;43430;48.204;11.556;2023-04-22T05:03:38;95539.28;;;6.62;100.00
57606;BME280;43430;48.204;11.556;2023-04-22T05:06:04;95533.41;;;6.66;100.00
57606;BME280;43430;48.204;11.556;2023-04-22T05:08:29;95535.38;;;6.78;100.00
57606;BME280;43430;48.204;11.556;2023-04-22T05:10:55;95531.72;;;6.85;100.00
57606;BME280;43430;48.204;11.556;2023-04-22T05:13:20;95526.63;;;6.97;100.00
57606;BME280;43430;48.204;11.556;2023-04-22T05:15:46;95528.41;;;7.03;100.00
57606;BME280;43430;48.204;11.556;2023-04-22T05:18:12;95514.63;;;7.14;100.00
57606;BME280;43430;48.204;11.556;2023-04-22T05:20:37;95518.00;;;7.22;100.00
57606;BME280;43430;48.204;11.556;2023-04-22T05:23:03;95507.84;;;7.32;100.00
57606;BME280;43430;48.204;11.556;2023-04-22T05:25:28;95500.31;;;7.42;100.00
57606;BME280;43430;48.204;11.556;2023-04-22T05:27:54;95495.38;;;7.52;100.00
57606;BME280;43430;48.204;11.556;2023-04-22T05:30:19;95489.44;;;7.64;100.00
57606;BME280;43430;48.204;11.556;2023-04-22T05:32:44;95496.84;;;7.73;100.00
57606;BME280;43430;48.204;11.556;2023-04-22T05:35:10;95492.69;;;7.84;100.00
57606;BME280;43430;48.204;11.556;2023-04-22T05:37:35;95497.03;;;7.97;100.00
57606;BME280;43430;48.204;11.556;2023-04-22T05:40:01;95492.00;;;8.14;100.00
57606;BME280;43430;48.204;11.556;2023-04-22T05:42:26;95487.13;;;8.36;100.00
57606;BME280;43430;48.204;11.556;2023-04-22T05:44:52;95484.56;;;8.66;100.00
57606;BME280;43430;48.204;11.556;2023-04-22T05:47:17;95472.50;;;9.07;100.00
57606;BME280;43430;48.204;11.556;2023-04-22T05:49:43;95473.88;;;9.51;100.00
57606;BME280;43430;48.204;11.556;2023-04-22T05:52:08;95467.13;;;9.90;100.00
57606;BME280;43430;48.204;11.556;2023-04-22T05:54:33;95458.06;;;10.33;100.00
57606;BME280;43430;48.204;11.556;2023-04-22T05:56:59;95447.28;;;10.75;100.00
57606;BME280;43430;48.204;11.556;2023-04-22T05:59:24;95449.44;;;11.07;100.00
57606;BME280;43430;48.204;11.556;2023-04-22T06:01:50;95451.22;;;11.35;100.00
57606;BME280;43430;48.204;11.556;2023-04-22T06:04:17;95454.50;;;11.59;100.00
57606;BME280;43430;48.204;11.556;2023-04-22T06:06:42;95453.72;;;11.41;100.00
57606;BME280;43430;48.204;11.556;2023-04-22T06:09:08;95459.69;;;11.20;100.00
57606;BME280;43430;48.204;11.556;2023-04-22T06:11:33;95462.09;;;11.38;100.00
57606;BME280;43430;48.204;11.556;2023-04-22T06:13:59;95455.88;;;11.61;100.00
57606;BME280;43430;48.204;11.556;2023-04-22T06:16:24;95455.72;;;11.68;100.00
57606;BME280;43430;48.204;11.556;2023-04-22T06:18:50;95464.81;;;11.27;100.00
57606;BME280;43430;48.204;11.556;2023-04-22T06:21:15;95465.19;;;11.98;100.00
57606;BME280;43430;48.204;11.556;2023-04-22T06:23:41;95460.53;;;12.05;100.00
57606;BME280;43430;48.204;11.556;2023-04-22T06:26:06;95466.78;;;12.21;100.00
57606;BME280;43430;48.204;11.556;2023-04-22T06:28:32;95454.16;;;12.67;100.00
57606;BME280;43430;48.204;11.556;2023-04-22T06:30:57;95449.50;;;13.01;100.00
57606;BME280;43430;48.204;11.556;2023-04-22T06:33:22;95447.53;;;13.18;100.00
57606;BME280;43430;48.204;11.556;2023-04-22T06:35:48;95444.03;;;13.13;100.00
57606;BME280;43430;48.204;11.556;2023-04-22T06:38:13;95452.75;;;13.08;100.00
57606;BME280;43430;48.204;11.556;2023-04-22T06:40:39;95456.69;;;13.05;100.00
57606;BME280;43430;48.204;11.556;2023-04-22T06:43:04;95451.91;;;13.29;100.00
57606;BME280;43430;48.204;11.556;2023-04-22T06:45:29;95449.34;;;13.40;100.00
57606;BME280;43430;48.204;11.556;2023-04-22T06:47:55;95453.75;;;13.61;100.00
57606;BME280;43430;48.204;11.556;2023-04-22T06:50:20;95453.19;;;13.59;100.00
57606;BME280;43430;48.204;11.556;2023-04-22T06:52:46;95447.13;;;13.32;100.00
57606;BME280;43430;48.204;11.556;2023-04-22T06:55:12;95445.25;;;13.27;100.00
57606;BME280;43430;48.204;11.556;2023-04-22T06:57:37;95456.97;;;13.09;100.00
57606;BME280;43430;48.204;11.556;2023-04-22T07:00:04;95446.09;;;13.05;100.00
57606;BME280;43430;48.204;11.556;2023-04-22T07:02:32;95439.94;;;13.00;100.00
57606;BME280;43430;48.204;11.556;2023-04-22T07:04:57;95449.81;;;12.82;100.00
57606;BME280;43430;48.204;11.556;2023-04-22T07:07:23;95453.97;;;12.73;100.00
57606;BME280;43430;48.204;11.556;2023-04-22T07:09:48;95456.50;;;12.63;100.00
57606;BME280;43430;48.204;11.556;2023-04-22T07:12:14;95452.00;;;12.64;100.00
57606;BME280;43430;48.204;11.556;2023-04-22T07:14:43;95450.59;;;12.56;100.00
57606;BME280;43430;48.204;11.556;2023-04-22T07:17:09;95444.19;;;12.74;100.00
57606;BME280;43430;48.204;11.556;2023-04-22T07:19:35;95443.44;;;12.78;100.00
57606;BME280;43430;48.204;11.556;2023-04-22T07:22:01;95447.47;;;12.86;100.00
57606;BME280;43430;48.204;11.556;2023-04-22T07:24:27;95444.13;;;12.96;100.00
57606;BME280;43430;48.204;11.556;2023-04-22T07:26:53;95439.94;;;13.00;100.00
57606;BME280;43430;48.204;11.556;2023-04-22T07:29:18;95439.31;;;12.88;100.00
57606;BME280;43430;48.204;11.556;2023-04-22T07:31:43;95435.09;;;12.92;100.00
57606;BME280;43430;48.204;11.556;2023-04-22T07:34:09;95432.25;;;12.98;100.00
57606;BME280;43430;48.204;11.556;2023-04-22T07:36:35;95427.59;;;13.11;100.00
57606;BME280;43430;48.204;11.556;2023-04-22T07:39:00;95430.16;;;13.27;100.00
57606;BME280;43430;48.204;11.556;2023-04-22T07:41:26;95429.72;;;13.36;100.00
57606;BME280;43430;48.204;11.556;2023-04-22T07:43:52;95425.63;;;13.55;100.00
57606;BME280;43430;48.204;11.556;2023-04-22T07:46:18;95428.81;;;13.57;100.00
57606;BME280;43430;48.204;11.556;2023-04-22T07:48:43;95433.13;;;13.63;100.00
57606;BME280;43430;48.204;11.556;2023-04-22T07:51:09;95437.38;;;13.69;100.00
57606;BME280;43430;48.204;11.556;2023-04-22T07:53:34;95440.59;;;13.71;100.00
57606;BME280;43430;48.204;11.556;2023-04-22T07:56:01;95430.75;;;13.67;100.00
57606;BME280;43430;48.204;11.556;2023-04-22T07:58:26;95433.91;;;13.64;100.00
57606;BME280;43430;48.204;11.556;2023-04-22T08:00:51;95423.59;;;13.67;100.00
57606;BME280;43430;48.204;11.556;2023-04-22T08:03:17;95428.41;;;13.70;100.00
57606;BME280;43430;48.204;11.556;2023-04-22T08:05:42;95427.19;;;13.93;100.00
57606;BME280;43430;48.204;11.556;2023-04-22T08:08:08;95426.97;;;13.95;100.00
57606;BME280;43430;48.204;11.556;2023-04-22T08:10:33;95422.25;;;14.07;100.00
57606;BME280;43430;48.204;11.556;2023-04-22T08:12:59;95431.59;;;14.20;100.00
57606;BME280;43430;48.204;11.556;2023-04-22T08:15:24;95431.41;;;14.32;100.00
57606;BME280;43430;48.204;11.556;2023-04-22T08:17:50;95420.06;;;14.46;100.00
57606;BME280;43430;48.204;11.556;2023-04-22T08:20:15;95425.31;;;14.36;100.00
57606;BME280;43430;48.204;11.556;2023-04-22T08:22:42;95425.28;;;14.26;100.00
57606;BME280;43430;48.204;11.556;2023-04-22T08:25:08;95424.59;;;14.51;100.00
57606;BME280;43430;48.204;11.556;2023-04-22T08:27:34;95421.53;;;14.85;100.00
57606;BME280;43430;48.204;11.556;2023-04-22T08:30:00;95423.69;;;14.98;100.00
57606;BME280;43430;48.204;11.556;2023-04-22T08:32:25;95417.09;;;15.11;100.00
57606;BME280;43430;48.204;11.556;2023-04-22T08:34:51;95418.41;;;15.24;100.00
57606;BME280;43430;48.204;11.556;2023-04-22T08:37:16;95424.28;;;15.36;100.00
57606;BME280;43430;48.204;11.556;2023-04-22T08:39:41;95421.34;;;15.48;97.23
57606;BME280;43430;48.204;11.556;2023-04-22T08:42:08;95422.13;;;15.48;97.83
57606;BME280;43430;48.204;11.556;2023-04-22T08:44:34;95425.88;;;15.57;100.00
57606;BME280;43430;48.204;11.556;2023-04-22T08:47:00;95429.34;;;15.78;100.00
57606;BME280;43430;48.204;11.556;2023-04-22T08:49:27;95419.47;;;15.89;100.00
57606;BME280;43430;48.204;11.556;2023-04-22T08:51:54;95421.06;;;15.95;90.03
57606;BME280;43430;48.204;11.556;2023-04-22T08:54:20;95421.59;;;15.97;91.16
57606;BME280;43430;48.204;11.556;2023-04-22T08:56:48;95415.75;;;15.95;90.99
57606;BME280;43430;48.204;11.556;2023-04-22T08:59:14;95417.88;;;15.98;94.95
57606;BME280;43430;48.204;11.556;2023-04-22T09:01:41;95408.81;;;16.09;90.38
57606;BME280;43430;48.204;11.556;2023-04-22T09:04:09;95409.88;;;16.03;89.01
57606;BME280;43430;48.204;11.556;2023-04-22T09:06:37;95410.66;;;16.09;83.00
57606;BME280;43430;48.204;11.556;2023-04-22T09:09:05;95406.84;;;16.41;87.41
57606;BME280;43430;48.204;11.556;2023-04-22T09:11:33;95400.19;;;16.48;82.34
57606;BME280;43430;48.204;11.556;2023-04-22T09:13:58;95408.38;;;16.57;77.47
57606;BME280;43430;48.204;11.556;2023-04-22T09:16:24;95405.69;;;16.62;85.01
57606;BME280;43430;48.204;11.556;2023-04-22T09:18:49;95400.19;;;16.43;85.49
57606;BME280;43430;48.204;11.556;2023-04-22T09:21:15;95402.59;;;16.40;78.99
57606;BME280;43430;48.204;11.556;2023-04-22T09:26:10;95402.47;;;16.65;77.00
57606;BME280;43430;48.204;11.556;2023-04-22T09:28:36;95398.72;;;16.71;85.35
57606;BME280;43430;48.204;11.556;2023-04-22T09:31:02;95389.13;;;16.75;90.44
57606;BME280;43430;48.204;11.556;2023-04-22T09:33:30;95383.63;;;17.06;85.09
57606;BME280;43430;48.204;11.556;2023-04-22T09:35:55;95393.91;;;17.23;77.82
57606;BME280;43430;48.204;11.556;2023-04-22T09:38:20;95390.16;;;17.24;76.49
57606;BME280;43430;48.204;11.556;2023-04-22T09:40:46;95390.50;;;17.12;71.93
57606;BME280;43430;48.204;11.556;2023-04-22T09:43:11;95388.09;;;17.16;80.21
57606;BME280;43430;48.204;11.556;2023-04-22T09:45:38;95387.41;;;17.34;75.22
57606;BME280;43430;48.204;11.556;2023-04-22T09:48:10;95383.09;;;17.43;73.40
57606;BME280;43430;48.204;11.556;2023-04-22T09:50:37;95385.25;;;17.41;77.29
57606;BME280;43430;48.204;11.556;2023-04-22T09:53:09;95379.81;;;17.51;73.62
57606;BME280;43430;48.204;11.556;2023-04-22T09:55:37;95363.72;;;17.62;77.34
57606;BME280;43430;48.204;11.556;2023-04-22T09:58:05;95372.47;;;17.67;79.19
57606;BME280;43430;48.204;11.556;2023-04-22T10:00:35;95372.41;;;17.77;73.25
57606;BME280;43430;48.204;11.556;2023-04-22T10:03:02;95373.19;;;17.78;82.18
57606;BME280;43430;48.204;11.556;2023-04-22T10:05:28;95366.34;;;17.67;88.87
57606;BME280;43430;48.204;11.556;2023-04-22T10:07:53;95364.78;;;17.66;86.50
57606;BME280;43430;48.204;11.556;2023-04-22T10:10:19;95365.91;;;17.60;88.03
57606;BME280;43430;48.204;11.556;2023-04-22T10:12:46;95356.44;;;17.72;85.32
57606;BME280;43430;48.204;11.556;2023-04-22T10:15:12;95359.97;;;17.97;70.18
57606;BME280;43430;48.204;11.556;2023-04-22T10:17:38;95357.91;;;18.13;78.15
57606;BME280;43430;48.204;11.556;2023-04-22T10:20:10;95353.72;;;18.07;80.37
57606;BME280;43430;48.204;11.556;2023-04-22T10:22:41;95347.75;;;18.15;73.28
57606;BME280;43430;48.204;11.556;2023-04-22T10:25:27;95348.72;;;18.24;70.88
57606;BME280;43430;48.204;11.556;2023-04-22T10:30:27;95348.41;;;18.25;61.56
57606;BME280;43430;48.204;11.556;2023-04-22T10:32:53;95339.94;;;18.42;65.33
57606;BME280;43430;48.204;11.556;2023-04-22T10:35:25;95339.03;;;18.52;53.61
57606;BME280;43430;48.204;11.556;2023-04-22T10:37:52;95341.53;;;18.43;58.42
57606;BME280;43430;48.204;11.556;2023-04-22T10:40:18;95335.63;;;18.46;54.44
57606;BME280;43430;48.204;11.556;2023-04-22T10:42:49;95336.91;;;18.73;49.77
57606;BME280;43430;48.204;11.556;2023-04-22T10:45:15;95340.56;;;18.77;49.65
57606;BME280;43430;48.204;11.556;2023-04-22T10:47:41;95332.78;;;18.81;55.75
57606;BME280;43430;48.204;11.556;2023-04-22T10:52:33;95323.31;;;18.88;48.63
57606;BME280;43430;48.204;11.556;2023-04-22T10:54:59;95322.31;;;18.84;51.96
57606;BME280;43430;48.204;11.556;2023-04-22T10:57:30;95315.97;;;18.80;57.92
57606;BME280;43430;48.204;11.556;2023-04-22T11:00:15;95321.47;;;19.03;57.16
57606;BME280;43430;48.204;11.556;2023-04-22T11:02:45;95316.66;;;19.05;54.54
57606;BME280;43430;48.204;11.556;2023-04-22T11:07:43;95315.94;;;18.99;52.78
57606;BME280;43430;48.204;11.556;2023-04-22T11:10:09;95320.25;;;19.14;55.14
57606;BME280;43430;48.204;11.556;2023-04-22T11:15:14;95312.28;;;19.28;53.04
57606;BME280;43430;48.204;11.556;2023-04-22T11:17:45;95311.31;;;19.37;53.90
57606;BME280;43430;48.204;11.556;2023-04-22T11:20:11;95304.78;;;19.43;47.53
57606;BME280;43430;48.204;11.556;2023-04-22T11:22:42;95302.97;;;19.25;54.69
57606;BME280;43430;48.204;11.556;2023-04-22T11:25:08;95307.84;;;19.37;46.60
57606;BME280;43430;48.204;11.556;2023-04-22T11:27:40;95303.97;;;19.29;46.29
57606;BME280;43430;48.204;11.556;2023-04-22T11:30:18;95305.25;;;19.32;50.49
57606;BME280;43430;48.204;11.556;2023-04-22T11:32:47;95302.09;;;19.43;54.65
57606;BME280;43430;48.204;11.556;2023-04-22T11:35:15;95294.66;;;19.40;45.35
57606;BME280;43430;48.204;11.556;2023-04-22T11:37:46;95299.81;;;19.37;50.27
57606;BME280;43430;48.204;11.556;2023-04-22T11:40:17;95303.94;;;19.62;48.54
57606;BME280;43430;48.204;11.556;2023-04-22T11:42:43;95301.25;;;19.48;47.24
57606;BME280;43430;48.204;11.556;2023-04-22T11:45:09;95302.63;;;19.45;45.46
57606;BME280;43430;48.204;11.556;2023-04-22T11:47:35;95299.34;;;19.49;45.10
57606;BME280;43430;48.204;11.556;2023-04-22T11:50:03;95306.38;;;19.44;49.60
57606;BME280;43430;48.204;11.556;2023-04-22T11:55:31;95300.88;;;19.55;48.33
57606;BME280;43430;48.204;11.556;2023-04-22T11:58:04;95291.19;;;19.73;46.57
57606;BME280;43430;48.204;11.556;2023-04-22T12:00:47;95285.06;;;19.86;47.82
57606;BME280;43430;48.204;11.556;2023-04-22T12:03:24;95290.91;;;20.02;48.15
57606;BME280;43430;48.204;11.556;2023-04-22T12:06:00;95285.44;;;20.21;46.16
57606;BME280;43430;48.204;11.556;2023-04-22T12:08:29;95289.88;;;20.25;44.78
57606;BME280;43430;48.204;11.556;2023-04-22T12:10:57;95285.91;;;20.36;43.72
57606;BME280;43430;48.204;11.556;2023-04-22T12:13:28;95283.03;;;20.33;45.09
57606;BME280;43430;48.204;11.556;2023-04-22T12:15:57;95288.66;;;20.45;39.74
57606;BME280;43430;48.204;11.556;2023-04-22T12:18:36;95282.66;;;20.12;44.46
57606;BME280;43430;48.204;11.556;2023-04-22T12:21:13;95284.34;;;20.08;45.75
57606;BME280;43430;48.204;11.556;2023-04-22T12:23:46;95284.34;;;20.22;42.90
57606;BME280;43430;48.204;11.556;2023-04-22T12:26:13;95274.63;;;20.26;44.14
57606;BME280;43430;48.204;11.556;2023-04-22T12:28:40;95278.47;;;20.33;45.20
57606;BME280;43430;48.204;11.556;2023-04-22T12:31:06;95266.88;;;20.38;42.97
57606;BME280;43430;48.204;11.556;2023-04-22T12:33:32;95275.38;;;20.40;39.94
57606;BME280;43430;48.204;11.556;2023-04-22T12:35:58;95263.72;;;20.22;42.87
57606;BME280;43430;48.204;11.556;2023-04-22T12:38:23;95272.72;;;20.26;43.93
57606;BME280;43430;48.204;11.556;2023-04-22T12:40:49;95273.72;;;20.30;43.99
57606;BME280;43430;48.204;11.556;2023-04-22T12:43:15;95273.28;;;20.51;43.22
57606;BME280;43430;48.204;11.556;2023-04-22T12:45:41;95273.19;;;20.56;47.07
57606;BME280;43430;48.204;11.556;2023-04-22T12:48:07;95272.28;;;20.47;41.85
57606;BME280;43430;48.204;11.556;2023-04-22T12:50:32;95266.31;;;20.27;45.56
57606;BME280;43430;48.204;11.556;2023-04-22T12:52:57;95272.69;;;20.40;44.14
57606;BME280;43430;48.204;11.556;2023-04-22T12:55:23;95266.94;;;20.47;41.46
57606;BME280;43430;48.204;11.556;2023-04-22T12:57:49;95264.75;;;20.49;46.27